Time;durP1;ratioP1;P1;durP2;ratioP2;P2;SDS_P1;SDS_P2;PMS_P1;PMS_P2;Temp;Humidity;BMP_temperature;BMP_pressure;BME280_temperature;BME280_humidity;BME280_pressure;Samples;Min_cycle;Max_cycle;Signal;HPM_P1;HPM_P2
2021/09/17 00:00:29;;;;;;;24.75;18.17;;;;;;;;;;5028634;28;20177;-75
2021/09/17 00:02:55;;;;;;;21.60;16.95;;;;;;;;;;5020129;28;20201;-76
2021/09/17 00:05:20;;;;;;;23.75;16.95;;;;;;;;;;5029993;28;20642;-75
2021/09/17 00:07:45;;;;;;;22.17;16.20;;;;;;;;;;5022519;28;20196;-76
2021/09/17 00:10:12;;;;;;;26.95;17.92;;;;;;;;;;5030981;28;20205;-76
2021/09/17 00:12:37;;;;;;;26.95;18.42;;;;;;;;;;5022133;28;20186;-76
2021/09/17 00:15:03;;;;;;;27.70;18.55;;;;;;;;;;5030497;28;20197;-76
2021/09/17 00:17:30;;;;;;;24.55;18.67;;;;;;;;;;5022477;28;20646;-76
2021/09/17 00:19:55;;;;;;;24.13;18.40;;;;;;;;;;5030762;28;20174;-75
2021/09/17 00:22:20;;;;;;;30.33;19.90;;;;;;;;;;5026524;28;20196;-75
2021/09/17 00:24:46;;;;;;;25.30;18.98;;;;;;;;;;5022039;28;20198;-76
2021/09/17 00:27:11;;;;;;;28.23;18.67;;;;;;;;;;5031452;28;20220;-77
2021/09/17 00:29:36;;;;;;;25.40;19.17;;;;;;;;;;5022945;28;21620;-77
2021/09/17 00:32:02;;;;;;;24.92;18.33;;;;;;;;;;5029030;28;20202;-77
2021/09/17 00:34:27;;;;;;;29.08;20.75;;;;;;;;;;5018917;28;20752;-77
2021/09/17 00:36:53;;;;;;;28.98;20.83;;;;;;;;;;5032680;28;20216;-76
2021/09/17 00:39:18;;;;;;;32.38;21.27;;;;;;;;;;5021236;28;20201;-76
2021/09/17 00:41:43;;;;;;;32.15;21.65;;;;;;;;;;5030978;28;20557;-75
2021/09/17 00:44:09;;;;;;;35.80;23.20;;;;;;;;;;5021566;28;20294;-76
2021/09/17 00:46:35;;;;;;;31.55;21.67;;;;;;;;;;5029821;28;20699;-76
2021/09/17 00:49:01;;;;;;;31.20;22.35;;;;;;;;;;5030405;28;20363;-75
2021/09/17 00:51:26;;;;;;;45.50;29.65;;;;;;;;;;5018937;28;20213;-76
2021/09/17 00:53:52;;;;;;;44.05;29.27;;;;;;;;;;5028742;28;20200;-76
2021/09/17 00:56:18;;;;;;;49.63;31.00;;;;;;;;;;5021576;28;20209;-75
2021/09/17 00:58:43;;;;;;;43.08;26.88;;;;;;;;;;5031469;28;20265;-75
2021/09/17 01:01:08;;;;;;;35.60;25.40;;;;;;;;;;5020554;28;20666;-76
2021/09/17 01:03:34;;;;;;;43.30;26.95;;;;;;;;;;5028095;28;20288;-75
2021/09/17 01:06:01;;;;;;;45.65;28.35;;;;;;;;;;5021294;28;20284;-76
2021/09/17 01:08:29;;;;;;;42.92;28.45;;;;;;;;;;5027371;28;20608;-76
2021/09/17 01:10:55;;;;;;;39.05;26.20;;;;;;;;;;5020883;28;20272;-76
2021/09/17 01:13:22;;;;;;;40.60;27.40;;;;;;;;;;5026026;28;20190;-76
2021/09/17 01:15:47;;;;;;;42.05;29.15;;;;;;;;;;5017051;28;20638;-76
2021/09/17 01:18:13;;;;;;;48.20;31.02;;;;;;;;;;5027813;28;20272;-76
2021/09/17 01:20:38;;;;;;;57.50;35.17;;;;;;;;;;5025148;28;20205;-76
2021/09/17 01:23:03;;;;;;;60.67;36.80;;;;;;;;;;5018553;28;20279;-76
2021/09/17 01:25:29;;;;;;;55.55;36.60;;;;;;;;;;5015447;28;20284;-76
2021/09/17 01:27:54;;;;;;;58.67;35.40;;;;;;;;;;5021664;28;20209;-76
2021/09/17 01:30:22;;;;;;;57.20;34.83;;;;;;;;;;5025566;28;20201;-76
2021/09/17 01:32:47;;;;;;;56.88;34.55;;;;;;;;;;5019794;28;20190;-76
2021/09/17 01:35:16;;;;;;;59.72;37.67;;;;;;;;;;5025005;28;20186;-76
2021/09/17 01:37:42;;;;;;;57.60;36.55;;;;;;;;;;5020605;28;20245;-76
2021/09/17 01:40:09;;;;;;;64.07;37.40;;;;;;;;;;5023899;28;20195;-76
2021/09/17 01:42:35;;;;;;;58.17;36.55;;;;;;;;;;5018947;28;20204;-76
2021/09/17 01:45:00;;;;;;;62.03;37.60;;;;;;;;;;5029148;28;20186;-76
2021/09/17 01:47:26;;;;;;;64.97;38.45;;;;;;;;;;5016825;28;20186;-76
2021/09/17 01:49:51;;;;;;;57.17;36.20;;;;;;;;;;5026591;28;20232;-76
2021/09/17 01:52:16;;;;;;;63.80;38.58;;;;;;;;;;5030264;28;20221;-77
2021/09/17 01:54:42;;;;;;;67.70;39.42;;;;;;;;;;5024103;28;20189;-77
2021/09/17 01:57:08;;;;;;;66.72;36.58;;;;;;;;;;5032225;28;20177;-76
2021/09/17 01:59:33;;;;;;;63.15;37.05;;;;;;;;;;5018763;28;20225;-77
2021/09/17 02:01:59;;;;;;;73.78;41.85;;;;;;;;;;5026943;28;20221;-77
2021/09/17 02:04:24;;;;;;;66.10;38.92;;;;;;;;;;5019625;28;20185;-77
2021/09/17 02:06:49;;;;;;;71.10;39.15;;;;;;;;;;5029861;28;20190;-77
2021/09/17 02:09:15;;;;;;;68.05;40.05;;;;;;;;;;5021961;28;20228;-77
2021/09/17 02:11:40;;;;;;;70.90;40.67;;;;;;;;;;5029849;28;20263;-77
2021/09/17 02:14:06;;;;;;;68.47;37.80;;;;;;;;;;5024150;28;20197;-77
2021/09/17 02:16:31;;;;;;;70.03;40.47;;;;;;;;;;5030613;28;20186;-77
2021/09/17 02:18:57;;;;;;;65.63;40.15;;;;;;;;;;5023532;28;20197;-77
2021/09/17 02:21:23;;;;;;;69.78;39.20;;;;;;;;;;5031582;28;20202;-77
2021/09/17 02:23:49;;;;;;;73.97;40.08;;;;;;;;;;5030380;28;20189;-77
2021/09/17 02:26:16;;;;;;;68.88;40.53;;;;;;;;;;5022245;28;20282;-77
2021/09/17 02:28:41;;;;;;;73.75;40.45;;;;;;;;;;5032848;28;20249;-77
2021/09/17 02:31:07;;;;;;;57.78;32.40;;;;;;;;;;5025635;28;20622;-77
2021/09/17 02:33:33;;;;;;;70.13;39.88;;;;;;;;;;5033731;28;20659;-77
2021/09/17 02:35:58;;;;;;;67.88;39.10;;;;;;;;;;5021080;28;20289;-77
2021/09/17 02:38:25;;;;;;;70.68;39.15;;;;;;;;;;5034050;28;20213;-77
2021/09/17 02:40:51;;;;;;;68.72;39.22;;;;;;;;;;5026260;28;20273;-77
2021/09/17 02:43:16;;;;;;;67.00;38.70;;;;;;;;;;5029980;28;20298;-77
2021/09/17 02:45:41;;;;;;;64.45;37.60;;;;;;;;;;5024098;28;20196;-77
2021/09/17 02:48:07;;;;;;;74.72;40.00;;;;;;;;;;5031095;28;20198;-77
2021/09/17 02:50:32;;;;;;;68.40;38.10;;;;;;;;;;5024914;28;20209;-77
2021/09/17 02:52:58;;;;;;;66.90;37.22;;;;;;;;;;5029123;28;20188;-77
2021/09/17 02:55:23;;;;;;;59.42;37.05;;;;;;;;;;5029650;28;20194;-77
2021/09/17 02:57:48;;;;;;;64.05;37.35;;;;;;;;;;5025550;28;20591;-76
2021/09/17 03:00:14;;;;;;;68.60;37.15;;;;;;;;;;5031148;28;20224;-77
2021/09/17 03:02:40;;;;;;;81.00;44.03;;;;;;;;;;5025538;28;20641;-77
2021/09/17 03:05:05;;;;;;;73.88;39.28;;;;;;;;;;5033226;28;20196;-77
2021/09/17 03:07:31;;;;;;;64.03;37.75;;;;;;;;;;5021141;28;20199;-77
2021/09/17 03:09:56;;;;;;;63.10;37.05;;;;;;;;;;5034332;28;20223;-77
2021/09/17 03:12:21;;;;;;;60.40;36.42;;;;;;;;;;5031539;28;20189;-77
2021/09/17 03:14:47;;;;;;;66.75;37.88;;;;;;;;;;5030389;28;20269;-77
2021/09/17 03:17:12;;;;;;;68.20;38.00;;;;;;;;;;5026010;28;21097;-77
2021/09/17 03:19:38;;;;;;;67.90;38.38;;;;;;;;;;5030588;28;20663;-77
2021/09/17 03:22:04;;;;;;;62.63;37.08;;;;;;;;;;5033781;28;20189;-77
2021/09/17 03:24:29;;;;;;;63.30;37.47;;;;;;;;;;5024793;28;20312;-77
2021/09/17 03:26:55;;;;;;;65.68;36.53;;;;;;;;;;5030533;28;20312;-77
2021/09/17 03:29:21;;;;;;;61.60;37.08;;;;;;;;;;5021572;28;20650;-77
2021/09/17 03:31:47;;;;;;;56.20;34.88;;;;;;;;;;5034470;28;20323;-77
2021/09/17 03:34:12;;;;;;;57.47;33.85;;;;;;;;;;5019220;28;20197;-76
2021/09/17 03:36:42;;;;;;;58.88;35.13;;;;;;;;;;5029887;28;20339;-77
2021/09/17 03:39:08;;;;;;;60.53;36.85;;;;;;;;;;5021093;28;20189;-77
2021/09/17 03:41:33;;;;;;;57.72;35.47;;;;;;;;;;5031321;28;20182;-77
2021/09/17 03:43:59;;;;;;;60.17;35.10;;;;;;;;;;5020834;28;20220;-76
2021/09/17 03:46:24;;;;;;;53.50;32.28;;;;;;;;;;5030920;28;20652;-77
2021/09/17 03:48:50;;;;;;;59.92;34.67;;;;;;;;;;5020364;28;20649;-77
2021/09/17 03:51:16;;;;;;;62.65;35.45;;;;;;;;;;5030646;28;20859;-76
2021/09/17 03:53:41;;;;;;;61.28;35.28;;;;;;;;;;5030025;28;20196;-77
2021/09/17 03:56:06;;;;;;;58.55;35.95;;;;;;;;;;5024074;28;20200;-77
2021/09/17 03:58:32;;;;;;;55.45;33.92;;;;;;;;;;5030402;28;20225;-76
2021/09/17 04:00:57;;;;;;;58.47;34.95;;;;;;;;;;5022444;28;20801;-77
2021/09/17 04:03:22;;;;;;;59.33;35.60;;;;;;;;;;5029860;28;20201;-76
2021/09/17 04:05:48;;;;;;;65.80;35.78;;;;;;;;;;5020362;28;20190;-77
2021/09/17 04:08:13;;;;;;;57.67;34.65;;;;;;;;;;5025234;28;20193;-77
2021/09/17 04:10:38;;;;;;;61.53;34.70;;;;;;;;;;5026460;28;20633;-78
2021/09/17 04:13:04;;;;;;;59.28;35.88;;;;;;;;;;5036452;28;20197;-77
2021/09/17 04:15:29;;;;;;;60.00;36.63;;;;;;;;;;5019827;28;20193;-76
2021/09/17 04:17:54;;;;;;;77.35;39.17;;;;;;;;;;5030132;28;20205;-76
2021/09/17 04:20:20;;;;;;;71.07;36.55;;;;;;;;;;5019063;28;20181;-76
2021/09/17 04:22:45;;;;;;;66.97;36.13;;;;;;;;;;5026463;28;20276;-76
2021/09/17 04:25:11;;;;;;;73.55;39.22;;;;;;;;;;5028258;28;20186;-76
2021/09/17 04:27:38;;;;;;;68.07;37.47;;;;;;;;;;5018748;28;20182;-76
2021/09/17 04:30:06;;;;;;;71.05;38.25;;;;;;;;;;5028147;28;20218;-76
2021/09/17 04:32:32;;;;;;;70.50;38.13;;;;;;;;;;5020538;28;20177;-77
2021/09/17 04:34:57;;;;;;;51.80;31.50;;;;;;;;;;5028257;28;20221;-76
2021/09/17 04:37:22;;;;;;;52.35;31.30;;;;;;;;;;5019758;28;20189;-76
2021/09/17 04:39:48;;;;;;;62.00;37.22;;;;;;;;;;5027407;28;20213;-77
2021/09/17 04:42:13;;;;;;;60.90;36.10;;;;;;;;;;5016350;28;20189;-77
2021/09/17 04:44:39;;;;;;;69.30;40.35;;;;;;;;;;5027683;28;20194;-77
2021/09/17 04:47:04;;;;;;;52.85;33.60;;;;;;;;;;5018863;28;20291;-76
2021/09/17 04:49:29;;;;;;;74.97;41.28;;;;;;;;;;5028815;28;20727;-76
2021/09/17 04:51:55;;;;;;;67.03;37.22;;;;;;;;;;5025182;28;20297;-77
2021/09/17 04:54:20;;;;;;;83.55;43.92;;;;;;;;;;5016345;28;20269;-77
2021/09/17 04:56:45;;;;;;;81.30;44.58;;;;;;;;;;5027129;28;20268;-77
2021/09/17 04:59:11;;;;;;;74.43;41.10;;;;;;;;;;5017820;28;20241;-76
2021/09/17 05:01:37;;;;;;;84.93;44.97;;;;;;;;;;5017606;28;20328;-76
2021/09/17 05:04:03;;;;;;;87.40;46.38;;;;;;;;;;5020904;28;20200;-76
2021/09/17 05:06:30;;;;;;;89.00;45.40;;;;;;;;;;5023133;28;20601;-76
2021/09/17 05:09:00;;;;;;;93.85;46.90;;;;;;;;;;5019960;28;20181;-76
2021/09/17 05:11:25;;;;;;;90.93;47.22;;;;;;;;;;5025606;28;20214;-76
2021/09/17 05:13:51;;;;;;;82.22;45.17;;;;;;;;;;5017453;28;20208;-76
2021/09/17 05:16:16;;;;;;;87.40;44.50;;;;;;;;;;5028504;28;20227;-76
2021/09/17 05:18:43;;;;;;;88.57;45.38;;;;;;;;;;5018857;28;20188;-76
2021/09/17 05:21:09;;;;;;;99.55;49.90;;;;;;;;;;5026599;28;20648;-76
2021/09/17 05:23:34;;;;;;;116.25;52.13;;;;;;;;;;5042897;28;20189;-76
2021/09/17 05:26:02;;;;;;;112.03;53.40;;;;;;;;;;5017644;28;20670;-77
2021/09/17 05:28:27;;;;;;;106.97;51.70;;;;;;;;;;5026137;28;20190;-77
2021/09/17 05:30:52;;;;;;;98.72;49.75;;;;;;;;;;5020197;28;20216;-77
2021/09/17 05:33:18;;;;;;;94.63;48.45;;;;;;;;;;5024905;28;20186;-77
2021/09/17 05:35:43;;;;;;;105.72;50.67;;;;;;;;;;5021741;28;20281;-77
2021/09/17 05:38:08;;;;;;;101.90;52.10;;;;;;;;;;5025403;28;20182;-77
2021/09/17 05:40:34;;;;;;;107.25;54.25;;;;;;;;;;5020388;28;20611;-77
2021/09/17 05:42:59;;;;;;;111.15;54.25;;;;;;;;;;5027051;28;20280;-77
2021/09/17 05:45:25;;;;;;;96.30;51.28;;;;;;;;;;5016259;28;20257;-77
2021/09/17 05:47:50;;;;;;;107.55;53.63;;;;;;;;;;5026059;28;20189;-77
2021/09/17 05:50:16;;;;;;;104.05;52.15;;;;;;;;;;5019104;28;20300;-77
2021/09/17 05:52:41;;;;;;;101.55;49.42;;;;;;;;;;5028582;28;20279;-77
2021/09/17 05:55:07;;;;;;;101.40;50.50;;;;;;;;;;5033135;28;20211;-77
2021/09/17 05:57:33;;;;;;;100.10;50.20;;;;;;;;;;5019209;28;20249;-77
2021/09/17 05:59:58;;;;;;;100.13;50.28;;;;;;;;;;5027326;28;20261;-77
2021/09/17 06:02:25;;;;;;;97.18;51.80;;;;;;;;;;5024255;28;20193;-77
2021/09/17 06:04:50;;;;;;;88.75;48.00;;;;;;;;;;5032847;28;20187;-77
2021/09/17 06:07:15;;;;;;;92.30;49.10;;;;;;;;;;5020823;28;20202;-77
2021/09/17 06:09:41;;;;;;;94.55;47.70;;;;;;;;;;5029608;28;20190;-77
2021/09/17 06:12:07;;;;;;;93.22;48.83;;;;;;;;;;5024726;28;20182;-77
2021/09/17 06:14:32;;;;;;;96.47;49.67;;;;;;;;;;5035553;28;20204;-77
2021/09/17 06:16:58;;;;;;;106.22;52.33;;;;;;;;;;5026296;28;21254;-77
2021/09/17 06:19:23;;;;;;;95.88;51.00;;;;;;;;;;5032651;28;20641;-77
2021/09/17 06:21:49;;;;;;;107.47;54.08;;;;;;;;;;5036757;28;20644;-77
2021/09/17 06:24:14;;;;;;;102.38;55.75;;;;;;;;;;5026241;28;20224;-77
2021/09/17 06:26:39;;;;;;;101.38;53.28;;;;;;;;;;5032032;28;20181;-77
2021/09/17 06:29:06;;;;;;;102.63;54.33;;;;;;;;;;5022210;28;20278;-77
2021/09/17 06:31:33;;;;;;;95.53;51.95;;;;;;;;;;5029630;28;20198;-77
2021/09/17 06:33:58;;;;;;;98.18;52.30;;;;;;;;;;5016830;28;20562;-77
2021/09/17 06:36:24;;;;;;;95.47;53.25;;;;;;;;;;5031233;28;20207;-77
2021/09/17 06:38:49;;;;;;;90.13;50.88;;;;;;;;;;5016454;28;20774;-77
2021/09/17 06:41:15;;;;;;;90.88;49.72;;;;;;;;;;5032164;28;20186;-77
2021/09/17 06:43:40;;;;;;;91.65;50.95;;;;;;;;;;5021750;28;20606;-77
2021/09/17 06:46:06;;;;;;;89.20;48.90;;;;;;;;;;5031323;28;20186;-77
2021/09/17 06:48:31;;;;;;;82.32;47.15;;;;;;;;;;5022880;28;20928;-77
2021/09/17 06:50:56;;;;;;;88.38;48.50;;;;;;;;;;5029251;28;20206;-77
2021/09/17 06:53:22;;;;;;;81.35;46.70;;;;;;;;;;5027926;28;20204;-77
2021/09/17 06:55:47;;;;;;;73.05;44.63;;;;;;;;;;5020015;28;20196;-77
2021/09/17 06:58:13;;;;;;;72.35;44.85;;;;;;;;;;5030824;28;20352;-77
2021/09/17 07:00:39;;;;;;;73.13;44.65;;;;;;;;;;5021232;28;20598;-77
2021/09/17 07:03:05;;;;;;;75.95;45.83;;;;;;;;;;5028490;28;20194;-77
2021/09/17 07:05:31;;;;;;;75.15;44.75;;;;;;;;;;5023504;28;20205;-77
2021/09/17 07:08:04;;;;;;;75.88;45.58;;;;;;;;;;5028176;28;20236;-77
2021/09/17 07:10:31;;;;;;;74.93;46.08;;;;;;;;;;5022137;28;20676;-76
2021/09/17 07:12:56;;;;;;;62.85;42.60;;;;;;;;;;5027932;28;20194;-76
2021/09/17 07:15:22;;;;;;;64.43;42.10;;;;;;;;;;5020044;28;20311;-77
2021/09/17 07:17:47;;;;;;;71.88;42.05;;;;;;;;;;5028527;28;20205;-77
2021/09/17 07:20:13;;;;;;;62.95;41.35;;;;;;;;;;5023098;28;20275;-76
2021/09/17 07:22:38;;;;;;;68.45;41.92;;;;;;;;;;5029949;28;20193;-76
2021/09/17 07:25:05;;;;;;;64.68;40.75;;;;;;;;;;5028809;28;20198;-77
2021/09/17 07:27:31;;;;;;;59.20;40.05;;;;;;;;;;5018564;28;20281;-77
2021/09/17 07:29:57;;;;;;;56.80;38.45;;;;;;;;;;5027059;28;20375;-76
2021/09/17 07:32:23;;;;;;;52.22;34.25;;;;;;;;;;5019092;28;20234;-77
2021/09/17 07:34:48;;;;;;;63.70;39.40;;;;;;;;;;5045343;28;20189;-77
2021/09/17 07:37:14;;;;;;;55.33;37.67;;;;;;;;;;5021221;28;20194;-76
2021/09/17 07:39:39;;;;;;;55.50;36.50;;;;;;;;;;5029437;28;20657;-76
2021/09/17 07:42:06;;;;;;;55.33;37.53;;;;;;;;;;5024424;28;20197;-77
2021/09/17 07:44:32;;;;;;;58.03;38.88;;;;;;;;;;5025140;28;20193;-78
2021/09/17 07:46:58;;;;;;;54.63;36.28;;;;;;;;;;5023826;28;20190;-77
2021/09/17 07:49:23;;;;;;;55.75;37.10;;;;;;;;;;5029642;28;20740;-77
2021/09/17 07:51:48;;;;;;;52.28;36.72;;;;;;;;;;5022485;28;20228;-77
2021/09/17 07:54:14;;;;;;;52.13;35.83;;;;;;;;;;5028710;28;20235;-77
2021/09/17 07:56:40;;;;;;;57.60;37.25;;;;;;;;;;5029211;28;20182;-77
2021/09/17 07:59:05;;;;;;;48.00;34.30;;;;;;;;;;5021306;28;20239;-77
2021/09/17 08:01:30;;;;;;;50.08;35.22;;;;;;;;;;5030973;28;20186;-77
2021/09/17 08:03:56;;;;;;;46.67;34.22;;;;;;;;;;5022192;28;20543;-77
2021/09/17 08:06:21;;;;;;;51.35;35.67;;;;;;;;;;5028460;28;20201;-76
2021/09/17 08:08:47;;;;;;;45.25;31.38;;;;;;;;;;5021212;28;20198;-76
2021/09/17 08:11:12;;;;;;;47.20;33.38;;;;;;;;;;5029261;28;20213;-76
2021/09/17 08:13:37;;;;;;;51.72;36.03;;;;;;;;;;5022347;28;20190;-76
2021/09/17 08:16:03;;;;;;;53.17;37.13;;;;;;;;;;5029689;28;20182;-77
2021/09/17 08:18:29;;;;;;;52.60;35.95;;;;;;;;;;5020598;28;20613;-77
2021/09/17 08:20:57;;;;;;;52.60;34.25;;;;;;;;;;5030310;28;20185;-77
2021/09/17 08:23:24;;;;;;;45.40;31.08;;;;;;;;;;5019881;28;20195;-77
2021/09/17 08:25:50;;;;;;;48.65;34.95;;;;;;;;;;5032249;28;20695;-77
2021/09/17 08:28:17;;;;;;;49.53;34.95;;;;;;;;;;5029801;28;20197;-77
2021/09/17 08:30:42;;;;;;;46.70;32.90;;;;;;;;;;5022797;28;20209;-78
2021/09/17 08:33:08;;;;;;;44.95;32.17;;;;;;;;;;5039707;28;20246;-77
2021/09/17 08:35:33;;;;;;;42.05;30.25;;;;;;;;;;5022677;28;20649;-75
2021/09/17 08:37:58;;;;;;;38.47;28.23;;;;;;;;;;5029941;28;20657;-77
2021/09/17 08:40:28;;;;;;;44.38;31.83;;;;;;;;;;5021002;28;20247;-76
2021/09/17 08:42:54;;;;;;;48.13;32.88;;;;;;;;;;5025105;28;20186;-76
2021/09/17 08:45:19;;;;;;;45.55;32.30;;;;;;;;;;5020038;28;20185;-77
2021/09/17 08:47:49;;;;;;;43.25;31.35;;;;;;;;;;5030657;28;20208;-77
2021/09/17 08:50:15;;;;;;;41.88;29.48;;;;;;;;;;5019437;28;20217;-76
2021/09/17 08:52:40;;;;;;;38.63;28.58;;;;;;;;;;5028748;28;20204;-77
2021/09/17 08:55:06;;;;;;;38.85;28.55;;;;;;;;;;5018786;28;21006;-76
2021/09/17 08:57:31;;;;;;;37.42;26.08;;;;;;;;;;5028267;28;20272;-76
2021/09/17 08:59:57;;;;;;;37.80;25.25;;;;;;;;;;5028977;28;20697;-76
2021/09/17 09:02:29;;;;;;;37.85;26.45;;;;;;;;;;5019251;28;20200;-76
2021/09/17 09:05:01;;;;;;;31.70;24.70;;;;;;;;;;5025290;28;21154;-75
2021/09/17 09:07:31;;;;;;;34.45;26.35;;;;;;;;;;5020951;28;20182;-76
2021/09/17 09:10:08;;;;;;;30.38;24.08;;;;;;;;;;5028573;28;20541;-76
2021/09/17 09:12:34;;;;;;;36.95;24.90;;;;;;;;;;5022037;28;20198;-77
2021/09/17 09:15:25;;;;;;;30.73;22.88;;;;;;;;;;5028975;28;20200;-76
2021/09/17 09:17:56;;;;;;;29.70;21.48;;;;;;;;;;5020263;28;20190;-75
2021/09/17 09:20:40;;;;;;;29.15;22.42;;;;;;;;;;5030842;28;20396;-75
2021/09/17 09:23:17;;;;;;;28.60;21.95;;;;;;;;;;5019578;28;20193;-75
2021/09/17 09:26:07;;;;;;;24.73;18.55;;;;;;;;;;5022427;28;20177;-74
2021/09/17 09:28:39;;;;;;;23.45;18.45;;;;;;;;;;5020021;28;20195;-76
2021/09/17 09:31:07;;;;;;;26.55;20.45;;;;;;;;;;5027687;28;20261;-75
2021/09/17 09:33:34;;;;;;;30.02;20.45;;;;;;;;;;5021465;28;20196;-74
2021/09/17 09:36:14;;;;;;;29.77;21.75;;;;;;;;;;5032529;28;20189;-75
2021/09/17 09:38:44;;;;;;;26.77;21.85;;;;;;;;;;5020988;28;20189;-74
2021/09/17 09:41:35;;;;;;;24.17;19.65;;;;;;;;;;5025288;28;20309;-76
2021/09/17 09:44:00;;;;;;;22.75;18.17;;;;;;;;;;5019676;28;20267;-75
2021/09/17 09:46:30;;;;;;;24.30;19.67;;;;;;;;;;5029046;28;20182;-77
2021/09/17 09:48:59;;;;;;;22.35;18.08;;;;;;;;;;5021184;28;20272;-75
2021/09/17 09:51:29;;;;;;;22.17;18.58;;;;;;;;;;5023431;28;20205;-76
2021/09/17 09:53:54;;;;;;;25.52;19.90;;;;;;;;;;5020625;28;20846;-76
2021/09/17 09:56:21;;;;;;;28.45;21.17;;;;;;;;;;5028699;28;20182;-76
2021/09/17 09:58:48;;;;;;;30.08;23.27;;;;;;;;;;5018857;28;20237;-76
2021/09/17 10:01:16;;;;;;;37.63;26.65;;;;;;;;;;5025833;28;20212;-76
2021/09/17 10:03:43;;;;;;;38.83;28.33;;;;;;;;;;5018658;28;20589;-76
2021/09/17 10:06:08;;;;;;;40.40;30.27;;;;;;;;;;5027668;28;20669;-75
2021/09/17 10:08:34;;;;;;;42.35;29.80;;;;;;;;;;5029087;28;20182;-76
2021/09/17 10:11:00;;;;;;;35.22;24.88;;;;;;;;;;5024877;28;20574;-75
2021/09/17 10:13:25;;;;;;;41.63;28.52;;;;;;;;;;5027771;28;20516;-76
2021/09/17 10:15:51;;;;;;;38.63;28.42;;;;;;;;;;5021528;28;20193;-76
2021/09/17 10:18:17;;;;;;;36.13;28.17;;;;;;;;;;5028747;28;20178;-76
2021/09/17 10:20:44;;;;;;;38.92;26.90;;;;;;;;;;5020365;28;20182;-75
2021/09/17 10:23:25;;;;;;;38.75;28.08;;;;;;;;;;5030174;28;20248;-76
2021/09/17 10:26:17;;;;;;;34.88;26.67;;;;;;;;;;5027308;28;20189;-76
2021/09/17 10:29:03;;;;;;;38.03;28.23;;;;;;;;;;5030715;28;20202;-77
2021/09/17 10:31:40;;;;;;;34.30;27.20;;;;;;;;;;5019326;28;20707;-76
2021/09/17 10:34:29;;;;;;;35.53;27.88;;;;;;;;;;5029145;28;20224;-76
2021/09/17 10:36:54;;;;;;;35.58;27.20;;;;;;;;;;5020994;28;20198;-75
2021/09/17 10:39:19;;;;;;;33.78;27.25;;;;;;;;;;5034524;28;20212;-76
2021/09/17 10:42:06;;;;;;;34.83;27.45;;;;;;;;;;5025208;28;20209;-76
2021/09/17 10:44:52;;;;;;;35.53;26.83;;;;;;;;;;5033196;28;20186;-76
2021/09/17 10:47:39;;;;;;;34.95;26.27;;;;;;;;;;5026352;28;20239;-74
2021/09/17 10:50:06;;;;;;;34.67;27.10;;;;;;;;;;5034678;28;20185;-75
2021/09/17 10:52:43;;;;;;;35.33;26.17;;;;;;;;;;5024802;28;20194;-75
2021/09/17 10:55:29;;;;;;;31.92;26.52;;;;;;;;;;5030565;28;20198;-76
2021/09/17 10:58:27;;;;;;;35.42;27.63;;;;;;;;;;5024512;28;20213;-77
2021/09/17 11:01:01;;;;;;;36.95;26.05;;;;;;;;;;5029638;28;20194;-76
2021/09/17 11:03:36;;;;;;;33.95;25.30;;;;;;;;;;5021296;28;20699;-74
2021/09/17 11:06:21;;;;;;;33.63;26.70;;;;;;;;;;5028760;28;20185;-75
2021/09/17 11:08:48;;;;;;;31.05;24.48;;;;;;;;;;5023887;28;20201;-76
2021/09/17 11:11:49;;;;;;;33.22;25.67;;;;;;;;;;5033133;28;20725;-75
2021/09/17 11:14:14;;;;;;;29.15;23.55;;;;;;;;;;5024630;28;20200;-73
2021/09/17 11:16:40;;;;;;;34.10;26.77;;;;;;;;;;5031403;28;20551;-74
2021/09/17 11:19:08;;;;;;;31.38;25.25;;;;;;;;;;5023502;28;20196;-75
2021/09/17 11:21:36;;;;;;;34.75;26.15;;;;;;;;;;5034000;28;20250;-74
2021/09/17 11:24:03;;;;;;;30.05;24.40;;;;;;;;;;5022071;28;20285;-74
2021/09/17 11:26:31;;;;;;;34.92;25.63;;;;;;;;;;5032848;28;20192;-75
2021/09/17 11:29:09;;;;;;;33.60;23.85;;;;;;;;;;5022495;28;20194;-73
2021/09/17 11:31:43;;;;;;;34.47;24.90;;;;;;;;;;5030503;28;20225;-74
2021/09/17 11:34:11;;;;;;;38.45;25.98;;;;;;;;;;5024809;28;20220;-74
2021/09/17 11:36:58;;;;;;;35.20;25.20;;;;;;;;;;5031990;28;20768;-74
2021/09/17 11:39:41;;;;;;;35.13;26.13;;;;;;;;;;5023656;28;20186;-73
2021/09/17 11:42:12;;;;;;;36.08;26.25;;;;;;;;;;5031472;28;20246;-74
2021/09/17 11:44:39;;;;;;;35.05;25.85;;;;;;;;;;5027491;28;21408;-73
2021/09/17 11:47:10;;;;;;;34.40;25.98;;;;;;;;;;5031868;28;20661;-72
2021/09/17 11:49:38;;;;;;;33.22;23.80;;;;;;;;;;5024509;28;20216;-74
2021/09/17 11:52:06;;;;;;;33.65;26.27;;;;;;;;;;5033631;28;20283;-72
2021/09/17 11:54:32;;;;;;;34.63;25.13;;;;;;;;;;5025475;28;20201;-74
2021/09/17 11:57:05;;;;;;;36.25;25.67;;;;;;;;;;5031914;28;20197;-74
2021/09/17 11:59:31;;;;;;;37.72;25.98;;;;;;;;;;5024696;28;20348;-74
2021/09/17 12:02:17;;;;;;;35.65;25.63;;;;;;;;;;5032973;28;20228;-74
2021/09/17 12:04:56;;;;;;;38.53;26.52;;;;;;;;;;5027342;28;20181;-75
2021/09/17 12:07:22;;;;;;;34.33;23.98;;;;;;;;;;5029661;28;20185;-75
2021/09/17 12:09:48;;;;;;;37.85;26.30;;;;;;;;;;5035780;28;20251;-76
2021/09/17 12:12:13;;;;;;;38.15;27.88;;;;;;;;;;5021632;28;20689;-75
2021/09/17 12:14:48;;;;;;;35.22;25.33;;;;;;;;;;5034396;28;20536;-73
2021/09/17 12:17:13;;;;;;;40.60;27.98;;;;;;;;;;5025252;28;20213;-74
2021/09/17 12:19:57;;;;;;;35.08;25.45;;;;;;;;;;5031220;28;20220;-75
2021/09/17 12:22:37;;;;;;;42.83;28.83;;;;;;;;;;5022728;28;20196;-75
2021/09/17 12:25:19;;;;;;;40.85;29.38;;;;;;;;;;5033021;28;21431;-75
2021/09/17 12:27:56;;;;;;;38.50;27.15;;;;;;;;;;5019844;28;20699;-74
2021/09/17 12:30:22;;;;;;;41.95;30.77;;;;;;;;;;5028453;28;20655;-75
2021/09/17 12:33:13;;;;;;;42.33;29.80;;;;;;;;;;5023353;28;20282;-75
2021/09/17 12:35:43;;;;;;;39.60;28.83;;;;;;;;;;5028579;28;20697;-75
2021/09/17 12:38:11;;;;;;;40.15;29.33;;;;;;;;;;5021904;28;20675;-75
2021/09/17 12:40:43;;;;;;;37.78;28.98;;;;;;;;;;5030010;28;20213;-76
2021/09/17 12:43:11;;;;;;;38.20;26.98;;;;;;;;;;5022634;28;20502;-74
2021/09/17 12:45:40;;;;;;;35.45;27.52;;;;;;;;;;5026445;28;20198;-75
2021/09/17 12:48:07;;;;;;;36.50;26.98;;;;;;;;;;5022633;28;20190;-74
2021/09/17 12:50:41;;;;;;;36.75;27.50;;;;;;;;;;5030751;28;20209;-75
2021/09/17 12:53:18;;;;;;;34.63;27.15;;;;;;;;;;5022713;28;20189;-75
2021/09/17 12:55:45;;;;;;;40.63;29.55;;;;;;;;;;5027776;28;20215;-76
2021/09/17 12:58:23;;;;;;;35.53;27.02;;;;;;;;;;5022542;28;20561;-74
2021/09/17 13:00:50;;;;;;;36.92;26.70;;;;;;;;;;5030554;28;20197;-75
2021/09/17 13:03:18;;;;;;;38.40;26.67;;;;;;;;;;5020329;28;20277;-76
2021/09/17 13:05:48;;;;;;;35.38;27.13;;;;;;;;;;5030395;28;20190;-77
2021/09/17 13:08:14;;;;;;;39.33;29.58;;;;;;;;;;5029593;28;21990;-75
2021/09/17 13:10:40;;;;;;;34.40;27.10;;;;;;;;;;5028965;28;20756;-75
2021/09/17 13:13:08;;;;;;;36.65;27.20;;;;;;;;;;5025787;28;20190;-75
2021/09/17 13:15:33;;;;;;;35.08;25.38;;;;;;;;;;5027615;28;20260;-74
2021/09/17 13:17:59;;;;;;;38.42;27.42;;;;;;;;;;5028957;28;20202;-75
2021/09/17 13:20:26;;;;;;;38.78;28.83;;;;;;;;;;5022381;28;20238;-75
2021/09/17 13:22:53;;;;;;;40.22;29.02;;;;;;;;;;5029027;28;20622;-75
2021/09/17 13:25:20;;;;;;;36.38;28.15;;;;;;;;;;5020867;28;20189;-75
2021/09/17 13:27:50;;;;;;;38.30;27.30;;;;;;;;;;5030210;28;20275;-75
2021/09/17 13:30:21;;;;;;;33.35;27.33;;;;;;;;;;5021638;28;20300;-75
2021/09/17 13:32:47;;;;;;;36.42;27.35;;;;;;;;;;5031365;28;20197;-75
2021/09/17 13:35:13;;;;;;;37.08;26.65;;;;;;;;;;5021535;28;20542;-74
2021/09/17 13:37:39;;;;;;;35.03;25.00;;;;;;;;;;5030763;28;20204;-74
2021/09/17 13:40:11;;;;;;;36.22;26.83;;;;;;;;;;5019829;28;20960;-76
2021/09/17 13:42:39;;;;;;;37.33;27.10;;;;;;;;;;5028415;28;20205;-75
2021/09/17 13:45:05;;;;;;;38.47;28.13;;;;;;;;;;5023615;28;24100;-75
2021/09/17 13:47:30;;;;;;;32.03;24.73;;;;;;;;;;5026933;28;20208;-75
2021/09/17 13:49:56;;;;;;;39.90;28.40;;;;;;;;;;5029348;28;20243;-75
2021/09/17 13:52:21;;;;;;;37.05;26.77;;;;;;;;;;5018372;28;20524;-74
2021/09/17 13:54:46;;;;;;;36.45;25.33;;;;;;;;;;5030409;28;20185;-74
2021/09/17 13:57:12;;;;;;;36.47;25.20;;;;;;;;;;5020940;28;20201;-74
2021/09/17 13:59:39;;;;;;;39.47;28.38;;;;;;;;;;5029128;28;20319;-75
2021/09/17 14:02:05;;;;;;;38.72;28.38;;;;;;;;;;5020448;28;20186;-75
2021/09/17 14:04:31;;;;;;;36.22;27.10;;;;;;;;;;5028737;28;20186;-74
2021/09/17 14:06:57;;;;;;;36.15;27.23;;;;;;;;;;5018836;28;20316;-74
2021/09/17 14:09:23;;;;;;;42.20;29.88;;;;;;;;;;5030628;28;20308;-75
2021/09/17 14:11:50;;;;;;;38.58;27.63;;;;;;;;;;5021616;28;20210;-74
2021/09/17 14:14:16;;;;;;;37.88;28.02;;;;;;;;;;5025524;28;21224;-74
2021/09/17 14:16:41;;;;;;;36.78;28.05;;;;;;;;;;5026360;28;20185;-76
2021/09/17 14:19:06;;;;;;;39.03;28.20;;;;;;;;;;5032196;28;20646;-76